sensor_id;sensor_type;location;lat;lon;timestamp;pressure;altitude;pressure_sealevel;temperature;humidity
52319;BME280;38258;51.148;14.068;2022-11-20T00:01:20;97921.47;;;-9.07;100.00
52319;BME280;38258;51.148;14.068;2022-11-20T00:03:47;97921.44;;;-8.88;100.00
52319;BME280;38258;51.148;14.068;2022-11-20T00:06:17;97918.97;;;-8.65;100.00
52319;BME280;38258;51.148;14.068;2022-11-20T00:08:44;97919.78;;;-8.87;100.00
52319;BME280;38258;51.148;14.068;2022-11-20T00:11:13;97911.44;;;-8.41;100.00
52319;BME280;38258;51.148;14.068;2022-11-20T00:13:40;97898.69;;;-8.65;100.00
52319;BME280;38258;51.148;14.068;2022-11-20T00:16:09;97911.84;;;-8.53;100.00
52319;BME280;38258;51.148;14.068;2022-11-20T00:18:36;97920.25;;;-8.31;100.00
52319;BME280;38258;51.148;14.068;2022-11-20T00:21:04;97919.88;;;-7.96;100.00
52319;BME280;38258;51.148;14.068;2022-11-20T00:23:33;97915.78;;;-7.92;100.00
52319;BME280;38258;51.148;14.068;2022-11-20T00:26:01;97916.97;;;-7.83;100.00
52319;BME280;38258;51.148;14.068;2022-11-20T00:28:28;97920.94;;;-7.67;100.00
52319;BME280;38258;51.148;14.068;2022-11-20T00:31:00;97922.78;;;-7.62;100.00
52319;BME280;38258;51.148;14.068;2022-11-20T00:33:27;97919.00;;;-7.49;100.00
52319;BME280;38258;51.148;14.068;2022-11-20T00:35:59;97913.00;;;-7.52;100.00
52319;BME280;38258;51.148;14.068;2022-11-20T00:38:25;97896.28;;;-7.93;100.00
52319;BME280;38258;51.148;14.068;2022-11-20T00:40:56;97908.06;;;-7.96;100.00
52319;BME280;38258;51.148;14.068;2022-11-20T00:43:23;97916.69;;;-7.90;100.00
52319;BME280;38258;51.148;14.068;2022-11-20T00:45:49;97908.94;;;-7.71;100.00
52319;BME280;38258;51.148;14.068;2022-11-20T00:48:16;97924.97;;;-7.72;100.00
52319;BME280;38258;51.148;14.068;2022-11-20T00:50:43;97917.59;;;-7.88;100.00
52319;BME280;38258;51.148;14.068;2022-11-20T00:53:09;97931.84;;;-7.69;100.00
52319;BME280;38258;51.148;14.068;2022-11-20T00:55:36;97907.72;;;-7.81;100.00
52319;BME280;38258;51.148;14.068;2022-11-20T00:58:04;97924.97;;;-7.72;100.00
52319;BME280;38258;51.148;14.068;2022-11-20T01:00:31;97926.25;;;-7.83;100.00
52319;BME280;38258;51.148;14.068;2022-11-20T01:02:57;97917.78;;;-7.84;100.00
52319;BME280;38258;51.148;14.068;2022-11-20T01:05:24;97919.94;;;-7.95;100.00
52319;BME280;38258;51.148;14.068;2022-11-20T01:07:51;97932.28;;;-7.81;100.00
52319;BME280;38258;51.148;14.068;2022-11-20T01:10:17;97938.72;;;-7.89;100.00
52319;BME280;38258;51.148;14.068;2022-11-20T01:12:44;97934.16;;;-7.75;100.00
52319;BME280;38258;51.148;14.068;2022-11-20T01:15:33;97927.84;;;-7.87;100.00
52319;BME280;38258;51.148;14.068;2022-11-20T01:18:02;97924.75;;;-7.78;100.00
52319;BME280;38258;51.148;14.068;2022-11-20T01:20:28;97930.13;;;-7.70;100.00
52319;BME280;38258;51.148;14.068;2022-11-20T01:22:55;97930.94;;;-7.71;100.00
52319;BME280;38258;51.148;14.068;2022-11-20T01:25:21;97891.31;;;-7.90;100.00
52319;BME280;38258;51.148;14.068;2022-11-20T01:27:48;97911.09;;;-7.82;100.00
52319;BME280;38258;51.148;14.068;2022-11-20T01:30:15;97936.19;;;-7.67;100.00
52319;BME280;38258;51.148;14.068;2022-11-20T01:32:43;97936.34;;;-7.62;100.00
52319;BME280;38258;51.148;14.068;2022-11-20T01:35:09;97929.41;;;-7.66;100.00
52319;BME280;38258;51.148;14.068;2022-11-20T01:37:36;97925.56;;;-7.79;100.00
52319;BME280;38258;51.148;14.068;2022-11-20T01:40:03;97903.66;;;-8.23;100.00
52319;BME280;38258;51.148;14.068;2022-11-20T01:42:31;97925.06;;;-7.93;100.00
52319;BME280;38258;51.148;14.068;2022-11-20T01:45:50;97909.63;;;-7.98;100.00
52319;BME280;38258;51.148;14.068;2022-11-20T01:48:22;97915.88;;;-7.89;100.00
52319;BME280;38258;51.148;14.068;2022-11-20T01:50:51;97902.66;;;-7.56;100.00
52319;BME280;38258;51.148;14.068;2022-11-20T01:53:22;97863.09;;;-7.98;100.00
52319;BME280;38258;51.148;14.068;2022-11-20T01:55:53;97898.56;;;-8.00;100.00
52319;BME280;38258;51.148;14.068;2022-11-20T01:58:27;97903.56;;;-7.78;100.00
52319;BME280;38258;51.148;14.068;2022-11-20T02:00:55;97904.75;;;-7.93;100.00
52319;BME280;38258;51.148;14.068;2022-11-20T02:03:23;97903.94;;;-7.92;100.00
52319;BME280;38258;51.148;14.068;2022-11-20T02:05:53;97902.59;;;-7.82;100.00
52319;BME280;38258;51.148;14.068;2022-11-20T02:08:23;97901.13;;;-7.75;100.00
52319;BME280;38258;51.148;14.068;2022-11-20T02:10:50;97904.19;;;-7.61;100.00
52319;BME280;38258;51.148;14.068;2022-11-20T02:13:17;97900.28;;;-7.76;100.00
52319;BME280;38258;51.148;14.068;2022-11-20T02:16:10;97875.38;;;-7.86;100.00
52319;BME280;38258;51.148;14.068;2022-11-20T02:18:39;97881.22;;;-7.64;100.00
52319;BME280;38258;51.148;14.068;2022-11-20T02:21:11;97892.59;;;-7.53;100.00
52319;BME280;38258;51.148;14.068;2022-11-20T02:23:57;97889.78;;;-7.61;100.00
52319;BME280;38258;51.148;14.068;2022-11-20T02:26:26;97897.50;;;-7.59;100.00
52319;BME280;38258;51.148;14.068;2022-11-20T02:28:54;97895.31;;;-7.73;100.00
52319;BME280;38258;51.148;14.068;2022-11-20T02:31:21;97895.94;;;-7.78;100.00
52319;BME280;38258;51.148;14.068;2022-11-20T02:33:53;97899.81;;;-7.65;100.00
52319;BME280;38258;51.148;14.068;2022-11-20T02:36:20;97896.78;;;-7.55;100.00
52319;BME280;38258;51.148;14.068;2022-11-20T02:38:46;97894.94;;;-7.59;100.00
52319;BME280;38258;51.148;14.068;2022-11-20T02:41:15;97886.78;;;-7.75;100.00
52319;BME280;38258;51.148;14.068;2022-11-20T02:43:42;97893.47;;;-7.77;100.00
52319;BME280;38258;51.148;14.068;2022-11-20T02:46:08;97895.81;;;-7.59;100.00
52319;BME280;38258;51.148;14.068;2022-11-20T02:48:35;97895.03;;;-7.56;100.00
52319;BME280;38258;51.148;14.068;2022-11-20T02:51:02;97902.41;;;-7.64;100.00
52319;BME280;38258;51.148;14.068;2022-11-20T02:53:29;97897.50;;;-7.59;100.00
52319;BME280;38258;51.148;14.068;2022-11-20T02:55:56;97902.56;;;-7.59;100.00
52319;BME280;38258;51.148;14.068;2022-11-20T02:58:25;97899.66;;;-7.70;100.00
52319;BME280;38258;51.148;14.068;2022-11-20T03:00:52;97886.03;;;-7.72;100.00
52319;BME280;38258;51.148;14.068;2022-11-20T03:03:19;97899.97;;;-7.61;100.00
52319;BME280;38258;51.148;14.068;2022-11-20T03:05:46;97890.88;;;-7.54;100.00
52319;BME280;38258;51.148;14.068;2022-11-20T03:08:13;97897.16;;;-7.69;100.00
52319;BME280;38258;51.148;14.068;2022-11-20T03:10:40;97892.13;;;-7.91;100.00
52319;BME280;38258;51.148;14.068;2022-11-20T03:13:06;97887.44;;;-7.56;100.00
52319;BME280;38258;51.148;14.068;2022-11-20T03:15:35;97887.78;;;-7.70;100.00
52319;BME280;38258;51.148;14.068;2022-11-20T03:18:03;97891.94;;;-7.73;100.00
52319;BME280;38258;51.148;14.068;2022-11-20T03:20:30;97866.47;;;-7.75;100.00
52319;BME280;38258;51.148;14.068;2022-11-20T03:22:58;97881.22;;;-7.64;100.00
52319;BME280;38258;51.148;14.068;2022-11-20T03:25:25;97883.22;;;-7.80;100.00
52319;BME280;38258;51.148;14.068;2022-11-20T03:27:53;97881.44;;;-7.58;100.00
52319;BME280;38258;51.148;14.068;2022-11-20T03:30:20;97877.06;;;-7.87;100.00
52319;BME280;38258;51.148;14.068;2022-11-20T03:32:52;97874.78;;;-7.79;100.00
52319;BME280;38258;51.148;14.068;2022-11-20T03:35:20;97879.59;;;-8.32;100.00
52319;BME280;38258;51.148;14.068;2022-11-20T03:37:46;97863.41;;;-8.59;100.00
52319;BME280;38258;51.148;14.068;2022-11-20T03:40:14;97875.16;;;-8.15;100.00
52319;BME280;38258;51.148;14.068;2022-11-20T03:42:41;97873.59;;;-8.34;100.00
52319;BME280;38258;51.148;14.068;2022-11-20T03:45:15;97881.13;;;-8.60;100.00
52319;BME280;38258;51.148;14.068;2022-11-20T03:47:42;97874.06;;;-8.89;100.00
52319;BME280;38258;51.148;14.068;2022-11-20T03:50:12;97863.41;;;-9.03;100.00
52319;BME280;38258;51.148;14.068;2022-11-20T03:52:39;97869.63;;;-8.95;100.00
52319;BME280;38258;51.148;14.068;2022-11-20T03:55:07;97864.84;;;-8.87;100.00
52319;BME280;38258;51.148;14.068;2022-11-20T03:57:34;97869.06;;;-8.66;100.00
52319;BME280;38258;51.148;14.068;2022-11-20T04:00:02;97873.78;;;-8.30;100.00
52319;BME280;38258;51.148;14.068;2022-11-20T04:02:30;97865.13;;;-8.12;100.00
52319;BME280;38258;51.148;14.068;2022-11-20T04:04:57;97867.38;;;-7.97;100.00
52319;BME280;38258;51.148;14.068;2022-11-20T04:07:25;97864.03;;;-7.72;100.00
52319;BME280;38258;51.148;14.068;2022-11-20T04:09:52;97856.75;;;-7.62;100.00
52319;BME280;38258;51.148;14.068;2022-11-20T04:12:19;97854.25;;;-7.36;100.00
52319;BME280;38258;51.148;14.068;2022-11-20T04:14:46;97859.31;;;-7.36;100.00
52319;BME280;38258;51.148;14.068;2022-11-20T04:17:13;97850.56;;;-7.45;100.00
52319;BME280;38258;51.148;14.068;2022-11-20T04:19:40;97855.31;;;-7.54;100.00
52319;BME280;38258;51.148;14.068;2022-11-20T04:22:06;97853.72;;;-7.52;100.00
52319;BME280;38258;51.148;14.068;2022-11-20T04:24:35;97850.09;;;-7.59;100.00
52319;BME280;38258;51.148;14.068;2022-11-20T04:27:02;97857.94;;;-7.53;100.00
52319;BME280;38258;51.148;14.068;2022-11-20T04:29:29;97854.47;;;-7.55;100.00
52319;BME280;38258;51.148;14.068;2022-11-20T04:31:56;97853.22;;;-7.66;100.00
52319;BME280;38258;51.148;14.068;2022-11-20T04:34:23;97830.91;;;-7.75;100.00
52319;BME280;38258;51.148;14.068;2022-11-20T04:36:49;97845.97;;;-7.79;100.00
52319;BME280;38258;51.148;14.068;2022-11-20T04:39:16;97844.22;;;-7.58;100.00
52319;BME280;38258;51.148;14.068;2022-11-20T04:41:45;97844.66;;;-7.44;100.00
52319;BME280;38258;51.148;14.068;2022-11-20T04:44:12;97845.13;;;-7.56;100.00
52319;BME280;38258;51.148;14.068;2022-11-20T04:46:40;97845.41;;;-7.46;100.00
52319;BME280;38258;51.148;14.068;2022-11-20T04:49:07;97823.66;;;-7.64;100.00
52319;BME280;38258;51.148;14.068;2022-11-20T04:51:35;97836.94;;;-7.47;100.00
52319;BME280;38258;51.148;14.068;2022-11-20T04:54:02;97841.69;;;-7.56;100.00
52319;BME280;38258;51.148;14.068;2022-11-20T04:56:29;97830.72;;;-7.55;100.00
52319;BME280;38258;51.148;14.068;2022-11-20T04:59:00;97840.34;;;-7.46;100.00
52319;BME280;38258;51.148;14.068;2022-11-20T05:01:27;97844.72;;;-7.42;100.00
52319;BME280;38258;51.148;14.068;2022-11-20T05:03:53;97837.94;;;-7.43;100.00
52319;BME280;38258;51.148;14.068;2022-11-20T05:06:21;97843.09;;;-7.40;100.00
52319;BME280;38258;51.148;14.068;2022-11-20T05:08:49;97817.28;;;-7.53;100.00
52319;BME280;38258;51.148;14.068;2022-11-20T05:11:17;97839.75;;;-7.39;100.00
52319;BME280;38258;51.148;14.068;2022-11-20T05:13:45;97852.78;;;-7.54;100.00
52319;BME280;38258;51.148;14.068;2022-11-20T05:16:15;97855.84;;;-7.64;100.00
52319;BME280;38258;51.148;14.068;2022-11-20T05:18:42;97845.66;;;-7.64;100.00
52319;BME280;38258;51.148;14.068;2022-11-20T05:21:10;97858.75;;;-7.78;100.00
52319;BME280;38258;51.148;14.068;2022-11-20T05:23:38;97853.59;;;-7.79;100.00
52319;BME280;38258;51.148;14.068;2022-11-20T05:26:07;97848.31;;;-7.86;100.00
52319;BME280;38258;51.148;14.068;2022-11-20T05:28:34;97851.53;;;-7.90;100.00
52319;BME280;38258;51.148;14.068;2022-11-20T05:31:06;97842.53;;;-7.82;100.00
52319;BME280;38258;51.148;14.068;2022-11-20T05:33:35;97848.03;;;-7.69;100.00
52319;BME280;38258;51.148;14.068;2022-11-20T05:36:03;97838.59;;;-7.73;100.00
52319;BME280;38258;51.148;14.068;2022-11-20T05:38:30;97831.09;;;-7.70;100.00
52319;BME280;38258;51.148;14.068;2022-11-20T05:41:03;97832.53;;;-7.77;100.00
52319;BME280;38258;51.148;14.068;2022-11-20T05:43:32;97837.06;;;-7.68;100.00
52319;BME280;38258;51.148;14.068;2022-11-20T05:45:59;97839.78;;;-7.63;100.00
52319;BME280;38258;51.148;14.068;2022-11-20T05:48:26;97831.19;;;-7.67;100.00
52319;BME280;38258;51.148;14.068;2022-11-20T05:50:56;97824.91;;;-7.77;100.00
52319;BME280;38258;51.148;14.068;2022-11-20T05:53:24;97828.06;;;-7.60;100.00
52319;BME280;38258;51.148;14.068;2022-11-20T05:55:56;97822.97;;;-7.60;100.00
52319;BME280;38258;51.148;14.068;2022-11-20T05:58:23;97826.16;;;-7.65;100.00
52319;BME280;38258;51.148;14.068;2022-11-20T06:00:50;97820.44;;;-7.60;100.00
52319;BME280;38258;51.148;14.068;2022-11-20T06:03:17;97820.31;;;-7.63;100.00
52319;BME280;38258;51.148;14.068;2022-11-20T06:05:44;97820.44;;;-7.60;100.00
52319;BME280;38258;51.148;14.068;2022-11-20T06:08:13;97814.66;;;-7.54;100.00
52319;BME280;38258;51.148;14.068;2022-11-20T06:10:39;97795.44;;;-7.73;100.00
52319;BME280;38258;51.148;14.068;2022-11-20T06:13:06;97814.47;;;-7.60;100.00
52319;BME280;38258;51.148;14.068;2022-11-20T06:15:33;97818.00;;;-7.57;100.00
52319;BME280;38258;51.148;14.068;2022-11-20T06:18:00;97813.75;;;-7.56;100.00
52319;BME280;38258;51.148;14.068;2022-11-20T06:20:27;97814.13;;;-7.71;100.00
52319;BME280;38258;51.148;14.068;2022-11-20T06:22:54;97817.84;;;-7.61;100.00
52319;BME280;38258;51.148;14.068;2022-11-20T06:25:22;97823.91;;;-7.56;100.00
52319;BME280;38258;51.148;14.068;2022-11-20T06:27:49;97826.31;;;-7.61;100.00
52319;BME280;38258;51.148;14.068;2022-11-20T06:30:16;97830.97;;;-7.49;100.00
52319;BME280;38258;51.148;14.068;2022-11-20T06:32:43;97821.47;;;-7.53;100.00
52319;BME280;38258;51.148;14.068;2022-11-20T06:35:10;97815.81;;;-7.46;100.00
52319;BME280;38258;51.148;14.068;2022-11-20T06:37:40;97813.00;;;-7.54;100.00
52319;BME280;38258;51.148;14.068;2022-11-20T06:40:11;97833.75;;;-7.41;100.00
52319;BME280;38258;51.148;14.068;2022-11-20T06:42:39;97812.78;;;-7.35;100.00
52319;BME280;38258;51.148;14.068;2022-11-20T06:45:08;97817.53;;;-7.45;100.00
52319;BME280;38258;51.148;14.068;2022-11-20T06:47:35;97826.06;;;-7.43;100.00
52319;BME280;38258;51.148;14.068;2022-11-20T06:50:02;97818.97;;;-7.27;100.00
52319;BME280;38258;51.148;14.068;2022-11-20T06:52:29;97816.53;;;-7.24;100.00
52319;BME280;38258;51.148;14.068;2022-11-20T06:54:56;97813.78;;;-7.30;100.00
52319;BME280;38258;51.148;14.068;2022-11-20T06:57:23;97807.31;;;-7.20;100.00
52319;BME280;38258;51.148;14.068;2022-11-20T06:59:51;97817.44;;;-7.22;100.00
52319;BME280;38258;51.148;14.068;2022-11-20T07:02:18;97818.19;;;-7.25;100.00
52319;BME280;38258;51.148;14.068;2022-11-20T07:04:45;97815.03;;;-7.17;100.00
52319;BME280;38258;51.148;14.068;2022-11-20T07:07:12;97808.19;;;-7.20;100.00
52319;BME280;38258;51.148;14.068;2022-11-20T07:09:39;97802.47;;;-7.13;100.00
52319;BME280;38258;51.148;14.068;2022-11-20T07:12:06;97803.53;;;-7.06;100.00
52319;BME280;38258;51.148;14.068;2022-11-20T07:14:33;97804.28;;;-7.10;100.00
52319;BME280;38258;51.148;14.068;2022-11-20T07:17:02;97794.59;;;-6.94;100.00
52319;BME280;38258;51.148;14.068;2022-11-20T07:19:29;97798.09;;;-6.91;100.00
52319;BME280;38258;51.148;14.068;2022-11-20T07:21:56;97801.78;;;-6.81;100.00
52319;BME280;38258;51.148;14.068;2022-11-20T07:24:23;97795.19;;;-6.74;100.00
52319;BME280;38258;51.148;14.068;2022-11-20T07:26:50;97806.56;;;-6.63;100.00
52319;BME280;38258;51.148;14.068;2022-11-20T07:29:17;97806.97;;;-6.49;100.00
52319;BME280;38258;51.148;14.068;2022-11-20T07:31:43;97807.13;;;-6.44;100.00
52319;BME280;38258;51.148;14.068;2022-11-20T07:34:12;97801.44;;;-6.35;100.00
52319;BME280;38258;51.148;14.068;2022-11-20T07:36:39;97801.72;;;-6.25;100.00
52319;BME280;38258;51.148;14.068;2022-11-20T07:39:06;97795.28;;;-6.13;100.00
52319;BME280;38258;51.148;14.068;2022-11-20T07:41:33;97797.19;;;-6.06;100.00
52319;BME280;38258;51.148;14.068;2022-11-20T07:44:00;97792.09;;;-6.06;100.00
52319;BME280;38258;51.148;14.068;2022-11-20T07:46:27;97791.59;;;-5.92;100.00
52319;BME280;38258;51.148;14.068;2022-11-20T07:48:54;97783.31;;;-5.84;100.00
52319;BME280;38258;51.148;14.068;2022-11-20T07:51:22;97779.22;;;-5.78;100.00
52319;BME280;38258;51.148;14.068;2022-11-20T07:53:50;97779.53;;;-5.66;100.00
52319;BME280;38258;51.148;14.068;2022-11-20T07:56:17;97774.69;;;-5.57;100.00
52319;BME280;38258;51.148;14.068;2022-11-20T07:58:44;97772.13;;;-5.57;100.00
52319;BME280;38258;51.148;14.068;2022-11-20T08:01:11;97777.06;;;-5.29;100.00
52319;BME280;38258;51.148;14.068;2022-11-20T08:03:38;97782.28;;;-5.25;100.00
52319;BME280;38258;51.148;14.068;2022-11-20T08:06:06;97784.25;;;-5.14;100.00
52319;BME280;38258;51.148;14.068;2022-11-20T08:08:34;97773.16;;;-5.16;100.00
52319;BME280;38258;51.148;14.068;2022-11-20T08:11:01;97777.84;;;-4.95;100.00
52319;BME280;38258;51.148;14.068;2022-11-20T08:13:45;97781.88;;;-4.68;100.00
52319;BME280;38258;51.148;14.068;2022-11-20T08:16:30;97770.72;;;-4.73;100.00
52319;BME280;38258;51.148;14.068;2022-11-20T08:18:57;97770.09;;;-4.63;100.00
52319;BME280;38258;51.148;14.068;2022-11-20T08:21:24;97765.72;;;-4.69;100.00
52319;BME280;38258;51.148;14.068;2022-11-20T08:23:52;97771.59;;;-4.31;100.00
52319;BME280;38258;51.148;14.068;2022-11-20T08:26:20;97780.50;;;-4.12;100.00
52319;BME280;38258;51.148;14.068;2022-11-20T08:28:47;97777.06;;;-4.16;100.00
52319;BME280;38258;51.148;14.068;2022-11-20T08:31:14;97770.28;;;-3.67;100.00
52319;BME280;38258;51.148;14.068;2022-11-20T08:33:41;97772.19;;;-3.57;100.00
52319;BME280;38258;51.148;14.068;2022-11-20T08:36:08;97764.47;;;-3.60;100.00
52319;BME280;38258;51.148;14.068;2022-11-20T08:38:35;97771.34;;;-3.56;100.00
52319;BME280;38258;51.148;14.068;2022-11-20T08:41:04;97769.94;;;-3.38;100.00
52319;BME280;38258;51.148;14.068;2022-11-20T08:43:49;97771.03;;;-3.24;100.00
52319;BME280;38258;51.148;14.068;2022-11-20T08:46:17;97772.25;;;-3.02;100.00
52319;BME280;38258;51.148;14.068;2022-11-20T08:48:44;97768.97;;;-2.31;100.00
52319;BME280;38258;51.148;14.068;2022-11-20T08:51:12;97762.78;;;-2.49;100.00
52319;BME280;38258;51.148;14.068;2022-11-20T08:53:39;97761.56;;;-2.09;100.00
52319;BME280;38258;51.148;14.068;2022-11-20T08:56:08;97773.25;;;-2.32;100.00
52319;BME280;38258;51.148;14.068;2022-11-20T08:58:36;97758.88;;;-2.20;100.00
52319;BME280;38258;51.148;14.068;2022-11-20T09:01:03;97766.09;;;-1.87;100.00
52319;BME280;38258;51.148;14.068;2022-11-20T09:03:31;97747.09;;;-2.06;100.00
52319;BME280;38258;51.148;14.068;2022-11-20T09:05:59;97746.47;;;-1.85;100.00
52319;BME280;38258;51.148;14.068;2022-11-20T09:08:27;97742.28;;;-1.76;100.00
52319;BME280;38258;51.148;14.068;2022-11-20T09:10:55;97756.03;;;-1.71;100.00
52319;BME280;38258;51.148;14.068;2022-11-20T09:13:25;97743.09;;;-1.80;100.00
52319;BME280;38258;51.148;14.068;2022-11-20T09:15:53;97745.56;;;-1.90;100.00
52319;BME280;38258;51.148;14.068;2022-11-20T09:18:21;97748.81;;;-1.15;100.00
52319;BME280;38258;51.148;14.068;2022-11-20T09:20:49;97743.31;;;-1.60;100.00
52319;BME280;38258;51.148;14.068;2022-11-20T09:23:16;97742.50;;;-1.53;100.00
52319;BME280;38258;51.148;14.068;2022-11-20T09:25:43;97746.97;;;-2.15;100.00
52319;BME280;38258;51.148;14.068;2022-11-20T09:28:10;97741.69;;;-1.50;100.00
52319;BME280;38258;51.148;14.068;2022-11-20T09:30:39;97743.97;;;-0.78;100.00
52319;BME280;38258;51.148;14.068;2022-11-20T09:33:05;97747.25;;;-0.99;100.00
52319;BME280;38258;51.148;14.068;2022-11-20T09:35:33;97738.50;;;-1.23;100.00
52319;BME280;38258;51.148;14.068;2022-11-20T09:38:05;97748.63;;;-1.38;100.00
52319;BME280;38258;51.148;14.068;2022-11-20T09:40:39;97746.66;;;-0.61;100.00
52319;BME280;38258;51.148;14.068;2022-11-20T09:43:11;97744.00;;;-0.76;100.00
52319;BME280;38258;51.148;14.068;2022-11-20T09:45:50;97742.88;;;-1.11;100.00
52319;BME280;38258;51.148;14.068;2022-11-20T09:48:32;97738.09;;;-0.57;100.00
52319;BME280;38258;51.148;14.068;2022-11-20T09:51:13;97726.56;;;-1.18;100.00
52319;BME280;38258;51.148;14.068;2022-11-20T09:53:52;97720.19;;;-0.47;100.00
52319;BME280;38258;51.148;14.068;2022-11-20T09:56:21;97732.38;;;0.02;100.00
52319;BME280;38258;51.148;14.068;2022-11-20T09:58:51;97719.53;;;0.05;100.00
52319;BME280;38258;51.148;14.068;2022-11-20T10:01:23;97722.81;;;-0.29;100.00
52319;BME280;38258;51.148;14.068;2022-11-20T10:03:56;97722.78;;;-0.36;100.00
52319;BME280;38258;51.148;14.068;2022-11-20T10:06:29;97722.88;;;-0.19;100.00
52319;BME280;38258;51.148;14.068;2022-11-20T10:09:03;97720.13;;;-0.57;100.00
52319;BME280;38258;51.148;14.068;2022-11-20T10:11:39;97729.41;;;-0.82;100.00
52319;BME280;38258;51.148;14.068;2022-11-20T10:14:21;97719.16;;;-0.73;100.00
52319;BME280;38258;51.148;14.068;2022-11-20T10:16:55;97719.09;;;-0.87;100.00
52319;BME280;38258;51.148;14.068;2022-11-20T10:19:37;97703.97;;;-0.27;100.00
52319;BME280;38258;51.148;14.068;2022-11-20T10:22:19;97724.59;;;-0.12;100.00
52319;BME280;38258;51.148;14.068;2022-11-20T10:24:55;97716.06;;;-0.03;97.63
52319;BME280;38258;51.148;14.068;2022-11-20T10:27:45;97710.88;;;-0.20;97.72
52319;BME280;38258;51.148;14.068;2022-11-20T10:30:18;97716.06;;;-0.06;99.83
52319;BME280;38258;51.148;14.068;2022-11-20T10:32:52;97714.38;;;0.07;100.00
52319;BME280;38258;51.148;14.068;2022-11-20T10:35:24;97720.28;;;-0.21;100.00
52319;BME280;38258;51.148;14.068;2022-11-20T10:37:56;97712.66;;;-0.04;100.00
52319;BME280;38258;51.148;14.068;2022-11-20T10:40:31;97707.63;;;0.65;98.07
52319;BME280;38258;51.148;14.068;2022-11-20T10:43:01;97708.44;;;0.33;99.11
52319;BME280;38258;51.148;14.068;2022-11-20T10:45:42;97699.03;;;0.56;97.59
52319;BME280;38258;51.148;14.068;2022-11-20T10:48:15;97702.47;;;0.82;93.59
52319;BME280;38258;51.148;14.068;2022-11-20T10:50:59;97692.16;;;0.59;91.82
52319;BME280;38258;51.148;14.068;2022-11-20T10:53:44;97662.13;;;0.76;90.31
52319;BME280;38258;51.148;14.068;2022-11-20T10:56:19;97683.59;;;0.50;95.12
52319;BME280;38258;51.148;14.068;2022-11-20T10:58:49;97692.16;;;1.02;92.40
52319;BME280;38258;51.148;14.068;2022-11-20T11:01:20;97692.19;;;0.52;91.67
52319;BME280;38258;51.148;14.068;2022-11-20T11:03:51;97684.44;;;0.38;91.26
52319;BME280;38258;51.148;14.068;2022-11-20T11:06:24;97698.16;;;0.23;92.17
52319;BME280;38258;51.148;14.068;2022-11-20T11:08:56;97686.19;;;0.58;89.84
52319;BME280;38258;51.148;14.068;2022-11-20T11:11:32;97691.22;;;0.01;89.34
52319;BME280;38258;51.148;14.068;2022-11-20T11:14:06;97688.72;;;0.28;88.66
52319;BME280;38258;51.148;14.068;2022-11-20T11:16:33;97687.72;;;-0.19;91.55
52319;BME280;38258;51.148;14.068;2022-11-20T11:19:05;97687.78;;;-0.09;91.73
52319;BME280;38258;51.148;14.068;2022-11-20T11:21:33;97685.28;;;0.23;93.20
52319;BME280;38258;51.148;14.068;2022-11-20T11:24:03;97681.81;;;0.04;94.00
52319;BME280;38258;51.148;14.068;2022-11-20T11:26:30;97660.25;;;-0.41;96.41
52319;BME280;38258;51.148;14.068;2022-11-20T11:28:58;97672.19;;;-0.54;95.87
52319;BME280;38258;51.148;14.068;2022-11-20T11:31:27;97661.66;;;-1.04;100.00
52319;BME280;38258;51.148;14.068;2022-11-20T11:34:05;97648.94;;;-0.84;100.00
52319;BME280;38258;51.148;14.068;2022-11-20T11:36:33;97663.78;;;-0.02;100.00
52319;BME280;38258;51.148;14.068;2022-11-20T11:39:02;97656.66;;;-0.81;99.92
52319;BME280;38258;51.148;14.068;2022-11-20T11:41:31;97641.38;;;-0.47;100.00
52319;BME280;38258;51.148;14.068;2022-11-20T11:44:03;97646.63;;;-0.20;100.00
52319;BME280;38258;51.148;14.068;2022-11-20T11:46:57;97643.88;;;-0.68;100.00
52319;BME280;38258;51.148;14.068;2022-11-20T11:49:26;97597.09;;;-1.62;100.00
52319;BME280;38258;51.148;14.068;2022-11-20T11:52:05;97627.66;;;-0.50;100.00
52319;BME280;38258;51.148;14.068;2022-11-20T11:54:43;97596.03;;;-0.41;100.00
52319;BME280;38258;51.148;14.068;2022-11-20T11:57:17;97589.22;;;-0.19;100.00
52319;BME280;38258;51.148;14.068;2022-11-20T12:00:00;97626.13;;;0.19;100.00
52319;BME280;38258;51.148;14.068;2022-11-20T12:02:36;97619.25;;;0.13;100.00
52319;BME280;38258;51.148;14.068;2022-11-20T12:05:08;97614.88;;;-0.36;100.00
52319;BME280;38258;51.148;14.068;2022-11-20T12:07:39;97615.78;;;-0.03;100.00
52319;BME280;38258;51.148;14.068;2022-11-20T12:13:01;97608.94;;;0.08;100.00
52319;BME280;38258;51.148;14.068;2022-11-20T12:15:30;97614.03;;;-0.34;100.00
52319;BME280;38258;51.148;14.068;2022-11-20T12:17:58;97611.53;;;0.15;100.00
52319;BME280;38258;51.148;14.068;2022-11-20T12:20:29;97606.22;;;-0.59;100.00
52319;BME280;38258;51.148;14.068;2022-11-20T12:23:00;97605.41;;;-0.47;100.00
52319;BME280;38258;51.148;14.068;2022-11-20T12:25:31;97599.88;;;-1.32;100.00
52319;BME280;38258;51.148;14.068;2022-11-20T12:31:20;97607.38;;;-1.60;100.00
52319;BME280;38258;51.148;14.068;2022-11-20T12:34:20;97553.63;;;-1.48;100.00
52319;BME280;38258;51.148;14.068;2022-11-20T12:36:56;97601.88;;;-0.77;100.00
52319;BME280;38258;51.148;14.068;2022-11-20T12:39:34;97606.13;;;-0.80;100.00
52319;BME280;38258;51.148;14.068;2022-11-20T12:45:19;97597.63;;;-0.73;100.00
52319;BME280;38258;51.148;14.068;2022-11-20T12:48:23;97603.63;;;-0.65;100.00
52319;BME280;38258;51.148;14.068;2022-11-20T12:51:23;97606.06;;;-0.96;100.00
52319;BME280;38258;51.148;14.068;2022-11-20T12:54:07;97603.72;;;-0.41;100.00
52319;BME280;38258;51.148;14.068;2022-11-20T12:56:42;97604.63;;;-0.27;100.00
52319;BME280;38258;51.148;14.068;2022-11-20T12:59:29;97607.22;;;-0.16;100.00
52319;BME280;38258;51.148;14.068;2022-11-20T13:02:09;97604.66;;;0.03;100.00
52319;BME280;38258;51.148;14.068;2022-11-20T13:04:54;97606.22;;;-0.59;100.00